Weather at General Juan N Alvarez International Airport

Public forecast

Using degrees Celsius for public forecast. Weather courtesy of forecast.io.

Current aviation weather report (METAR) for General Juan N Alvarez International Airport

Report is more than 2 hours old.

Retrieved 2020/11/25 02:46 UTC (5 hours ago):

MMAA 250246Z 25002KT 5SM SCT015TCU SCT300 27/24 A2993 RMK SLP128 52031 912 8/201 HZY

Aviation forecast (TAF) for General Juan N Alvarez International Airport

Retrieved 2020/11/25 06:29 UTC (47 minutes ago):

TAF MMAA 250421Z 2506/2612 03005KT P6SM SCT015 TX31/2520Z TN24/2512Z FM251600 23010KT P6SM SKC FM260300 02005KT 6SM HZ SCT015